M I D A S
Marine Information and Data Acquisition System
Tripno 654 of the Zeeleeuw from 2004-02-24 07:13:44 to 2004-02-24 14:12:10
Back to CruiseResearch ActivitiesStationsMapUnderway DataData graphs

EquipmentUnitsComments
TimeDGPSUTC
LatitudeDGPSDM.mWGS84
LongitudeDGPSDM.mWGS84
SpeedMeteo Stationm/sRelative wind speed
DirectionMeteo StationdegRelative wind direction
TemperatureMeteo Stationdeg CelciusAir temperature
PressureMeteo StationPaAtmospheric pressure
HumidityMeteo Station%Relative humidity
Missing or incorrect values are displayed as -999
Metereological data collected by the RV Zeeleeuw from 2004-02-24 07:13:44 to 2004-02-24 14:12:10
                                                                                    Next 1000 lines
Time Latitude Longitude Speed Direction Temperature Pressure Humidity
2004-02-24 07:13:53 51°13.592 2°56.111 3.7 177 4 101800 64
2004-02-24 07:13:58 51°13.592 2°56.111 3.2 182 4 101800 64
2004-02-24 07:14:02 51°13.592 2°56.111 3.6 186 4 101800 64
2004-02-24 07:14:08 51°13.592 2°56.109 4.5 168 4 101800 64
2004-02-24 07:14:13 51°13.592 2°56.109 4 159 4 101800 64
2004-02-24 07:14:18 51°13.592 2°56.109 4.2 166 4 101800 64
2004-02-24 07:14:23 51°13.592 2°56.109 4.7 166 3.9 101800 64
2004-02-24 07:14:28 51°13.592 2°56.109 4.3 173 3.9 101800 64
2004-02-24 07:14:33 51°13.592 2°56.109 3.9 182 3.9 101800 64
2004-02-24 07:14:38 51°13.592 2°56.109 3.3 167 3.9 101800 64
2004-02-24 07:14:42 51°13.592 2°56.109 4.5 184 3.9 101800 64
2004-02-24 07:14:48 51°13.593 2°56.109 4.5 174 3.9 101800 64
2004-02-24 07:14:53 51°13.593 2°56.11 4.3 176 3.9 101800 64
2004-02-24 07:14:58 51°13.593 2°56.11 3.8 150 3.9 101800 64
2004-02-24 07:15:02 51°13.593 2°56.11 3.1 171 4 101800 64
2004-02-24 07:15:08 51°13.593 2°56.11 3.4 195 4 101800 64
2004-02-24 07:15:12 51°13.593 2°56.11 2.5 179 3.9 101800 64
2004-02-24 07:15:18 51°13.593 2°56.11 3.9 172 3.9 101800 64
2004-02-24 07:15:23 51°13.593 2°56.11 4.2 173 3.9 101800 64
2004-02-24 07:15:28 51°13.593 2°56.11 3.6 173 3.9 101800 64
2004-02-24 07:15:32 51°13.593 2°56.11 3.5 166 3.9 101800 64
2004-02-24 07:15:38 51°13.593 2°56.11 4.5 172 3.9 101800 64
2004-02-24 07:15:42 51°13.593 2°56.11 4.3 186 4 101800 65
2004-02-24 07:15:48 51°13.593 2°56.11 4.9 160 4 101800 65
2004-02-24 07:15:53 51°13.593 2°56.11 5.3 173 4 101800 65
2004-02-24 07:15:58 51°13.593 2°56.11 3.8 170 4 101800 65
2004-02-24 07:16:03 51°13.593 2°56.11 3.5 177 4 101800 65
2004-02-24 07:16:08 51°13.593 2°56.11 3.3 180 4 101800 65
2004-02-24 07:16:12 51°13.593 2°56.11 2.3 177 4 101800 65
2004-02-24 07:16:18 51°13.593 2°56.11 2.7 189 4 101800 65
2004-02-24 07:16:22 51°13.593 2°56.11 2.4 178 4 101800 65
2004-02-24 07:16:28 51°13.593 2°56.11 2.6 188 4 101800 65
2004-02-24 07:16:33 51°13.593 2°56.11 3.7 187 4 101800 65
2004-02-24 07:16:38 51°13.593 2°56.11 3.2 176 4 101800 65
2004-02-24 07:16:42 51°13.593 2°56.11 2.7 186 4 101800 65
2004-02-24 07:16:48 51°13.593 2°56.11 2.7 179 4 101800 65
2004-02-24 07:16:53 51°13.592 2°56.11 3 199 4 101800 65
2004-02-24 07:16:58 51°13.592 2°56.11 3.5 162 4 101800 65
2004-02-24 07:17:03 51°13.592 2°56.109 3.5 211 4 101800 65
2004-02-24 07:17:08 51°13.593 2°56.107 5.1 208 4 101800 65
2004-02-24 07:17:13 51°13.593 2°56.105 4.3 198 4 101800 65
2004-02-24 07:17:18 51°13.594 2°56.101 3.5 197 4 101800 65
2004-02-24 07:17:23 51°13.595 2°56.097 5.8 199 4 101800 65
2004-02-24 07:17:28 51°13.596 2°56.092 3.3 181 4 101800 65
2004-02-24 07:17:33 51°13.597 2°56.086 4.4 163 4 101800 65
2004-02-24 07:17:38 51°13.599 2°56.08 4.9 171 4 101800 65
2004-02-24 07:17:44 51°13.602 2°56.072 4.4 179 4 101800 66
2004-02-24 07:17:48 51°13.604 2°56.067 4.4 177 4 101800 66
2004-02-24 07:17:54 51°13.607 2°56.058 5.6 182 4.1 101800 66
2004-02-24 07:17:58 51°13.609 2°56.052 5.6 186 4.1 101800 66
2004-02-24 07:18:04 51°13.612 2°56.042 3.8 182 4.1 101800 66
2004-02-24 07:18:08 51°13.614 2°56.034 5.4 175 4.1 101800 66
2004-02-24 07:18:14 51°13.618 2°56.023 5.7 167 4.1 101800 66
2004-02-24 07:18:18 51°13.62 2°56.016 6.1 174 4.1 101800 66
2004-02-24 07:18:24 51°13.624 2°56.004 4.3 182 4.1 101800 66
2004-02-24 07:18:29 51°13.627 2°55.994 5.6 176 4.1 101800 66
2004-02-24 07:18:34 51°13.63 2°55.984 6.5 178 4.1 101800 66
2004-02-24 07:18:38 51°13.633 2°55.976 6.2 162 4.1 101800 66
2004-02-24 07:18:44 51°13.637 2°55.963 6 171 4.2 101800 67
2004-02-24 07:18:48 51°13.64 2°55.955 5.7 170 4.2 101800 67
2004-02-24 07:18:53 51°13.643 2°55.944 5.3 176 4.2 101800 66
2004-02-24 07:18:58 51°13.647 2°55.934 7.5 170 4.2 101800 66
2004-02-24 07:19:04 51°13.651 2°55.921 5.3 177 4.2 101800 66
2004-02-24 07:19:09 51°13.654 2°55.911 6.1 169 4.2 101800 66
2004-02-24 07:19:14 51°13.658 2°55.9 4.7 173 4.2 101800 66
2004-02-24 07:19:18 51°13.66 2°55.892 4.8 184 4.2 101800 66
2004-02-24 07:19:24 51°13.664 2°55.879 4.6 181 4.2 101800 66
2004-02-24 07:19:29 51°13.668 2°55.868 4.1 187 4.2 101800 66
2004-02-24 07:19:34 51°13.67 2°55.857 5.4 190 4.2 101800 66
2004-02-24 07:19:39 51°13.673 2°55.845 4.7 189 4.2 101800 66
2004-02-24 07:19:44 51°13.676 2°55.834 5.7 188 4.2 101800 66
2004-02-24 07:19:49 51°13.678 2°55.823 5.1 197 4.2 101800 66
2004-02-24 07:19:53 51°13.68 2°55.814 5.4 177 4.2 101800 67
2004-02-24 07:19:58 51°13.682 2°55.802 5.7 206 4.2 101800 67
2004-02-24 07:20:04 51°13.685 2°55.789 4.2 174 4.3 101800 67
2004-02-24 07:20:09 51°13.686 2°55.779 6 169 4.3 101800 67
2004-02-24 07:20:13 51°13.687 2°55.773 4.7 187 4.3 101800 67
2004-02-24 07:20:18 51°13.688 2°55.767 3.8 184 4.3 101800 67
2004-02-24 07:20:22 51°13.688 2°55.764 2.9 177 4.3 101800 66
2004-02-24 07:20:28 51°13.689 2°55.763 3.1 239 4.3 101800 66
2004-02-24 07:20:32 51°13.69 2°55.764 2.7 218 4.3 101800 66
2004-02-24 07:20:38 51°13.691 2°55.765 2.9 224 4.3 101800 66
2004-02-24 07:20:42 51°13.693 2°55.768 2.3 247 4.3 101800 66
2004-02-24 07:20:48 51°13.696 2°55.771 2.6 273 4.3 101800 66
2004-02-24 07:20:53 51°13.698 2°55.774 2.5 303 4.3 101800 66
2004-02-24 07:20:58 51°13.702 2°55.776 2.3 275 4.3 101800 66
2004-02-24 07:21:02 51°13.705 2°55.778 2.2 266 4.3 101800 66
2004-02-24 07:21:08 51°13.709 2°55.779 1.4 291 4.3 101800 66
2004-02-24 07:21:12 51°13.712 2°55.779 1.3 282 4.3 101800 66
2004-02-24 07:21:18 51°13.714 2°55.779 2.3 280 4.3 101800 66
2004-02-24 07:21:22 51°13.715 2°55.779 5.1 273 4.3 101800 65
2004-02-24 07:21:28 51°13.715 2°55.779 2.3 259 4.3 101800 65
2004-02-24 07:21:33 51°13.714 2°55.778 2.7 264 4.3 101800 65
2004-02-24 07:21:38 51°13.713 2°55.777 3.6 294 4.3 101800 65
2004-02-24 07:21:42 51°13.712 2°55.776 2.6 276 4.3 101800 65
2004-02-24 07:21:48 51°13.709 2°55.775 2.5 259 4.3 101800 65
2004-02-24 07:21:54 51°13.705 2°55.774 3 226 4.2 101800 65
2004-02-24 07:21:58 51°13.703 2°55.773 2.3 232 4.2 101800 65
2004-02-24 07:22:04 51°13.701 2°55.772 2.7 242 4.2 101800 65
2004-02-24 07:22:08 51°13.7 2°55.771 2.4 271 4.2 101800 65
2004-02-24 07:22:14 51°13.701 2°55.77 2.9 289 4.2 101800 65
2004-02-24 07:22:18 51°13.703 2°55.769 3.5 291 4.2 101800 65
2004-02-24 07:22:24 51°13.707 2°55.766 3.4 312 4.2 101800 66
2004-02-24 07:22:29 51°13.711 2°55.763 2.9 337 4.2 101800 66
2004-02-24 07:22:34 51°13.714 2°55.76 4 236 4.2 101800 66
2004-02-24 07:22:38 51°13.718 2°55.756 4 319 4.2 101800 66
2004-02-24 07:22:43 51°13.722 2°55.752 4.1 23 4.2 101800 66
2004-02-24 07:22:48 51°13.727 2°55.746 4.4 343 4.2 101800 66
2004-02-24 07:22:53 51°13.732 2°55.74 3.3 1 4.2 101800 66
2004-02-24 07:22:58 51°13.738 2°55.733 4.3 6 4.2 101800 66
2004-02-24 07:23:03 51°13.744 2°55.726 4.7 10 4.2 101800 66
2004-02-24 07:23:08 51°13.75 2°55.719 5.7 8 4.2 101800 66
2004-02-24 07:23:13 51°13.757 2°55.711 3.6 343 4.1 101790 66
2004-02-24 07:23:18 51°13.764 2°55.703 4.9 343 4.1 101790 66
2004-02-24 07:23:22 51°13.77 2°55.697 3.8 346 4.1 101800 66
2004-02-24 07:23:28 51°13.779 2°55.687 6.2 352 4.1 101800 66
2004-02-24 07:23:32 51°13.785 2°55.68 5.8 347 4.1 101790 66
2004-02-24 07:23:38 51°13.794 2°55.67 5.8 356 4.1 101790 66
2004-02-24 07:23:42 51°13.801 2°55.663 4.3 353 4.1 101800 66
2004-02-24 07:23:48 51°13.811 2°55.653 2.9 16 4.1 101800 66
2004-02-24 07:23:53 51°13.819 2°55.646 5.9 28 4.1 101790 66
2004-02-24 07:23:58 51°13.828 2°55.638 6.1 349 4.1 101790 66
2004-02-24 07:24:02 51°13.835 2°55.632 2.9 11 4.1 101800 66
2004-02-24 07:24:08 51°13.847 2°55.622 3.7 336 4.1 101800 66
2004-02-24 07:24:13 51°13.857 2°55.614 9.3 343 4.1 101800 66
2004-02-24 07:24:18 51°13.866 2°55.605 5.6 351 4.1 101800 66
2004-02-24 07:24:22 51°13.875 2°55.598 5.8 342 4.1 101800 66
2004-02-24 07:24:28 51°13.887 2°55.588 6.3 341 4.1 101800 66
2004-02-24 07:24:33 51°13.898 2°55.579 5.9 315 4.1 101790 66
2004-02-24 07:24:38 51°13.908 2°55.57 5 343 4.1 101790 66
2004-02-24 07:24:42 51°13.917 2°55.563 4.5 350 4.1 101790 66
2004-02-24 07:24:48 51°13.93 2°55.551 5.9 343 4.1 101790 66
2004-02-24 07:24:53 51°13.942 2°55.542 6.1 358 4 101790 66
2004-02-24 07:24:58 51°13.953 2°55.533 6 358 4 101790 66
2004-02-24 07:25:03 51°13.964 2°55.524 5.3 326 4.1 101790 66
2004-02-24 07:25:08 51°13.976 2°55.514 5.1 329 4.1 101790 66
2004-02-24 07:25:13 51°13.988 2°55.505 5.6 2 4 101790 66
2004-02-24 07:25:18 51°13.999 2°55.496 6.5 346 4 101790 66
2004-02-24 07:25:22 51°14.008 2°55.489 7.2 344 4 101790 66
2004-02-24 07:25:28 51°14.021 2°55.479 9.5 330 4 101790 66
2004-02-24 07:25:33 51°14.032 2°55.471 7 331 4 101790 66
2004-02-24 07:25:38 51°14.042 2°55.464 7.3 326 4 101790 66
2004-02-24 07:25:42 51°14.051 2°55.458 6.3 348 4 101790 66
2004-02-24 07:25:48 51°14.063 2°55.449 9.7 325 4 101790 66
2004-02-24 07:25:53 51°14.074 2°55.442 6 318 4 101780 66
2004-02-24 07:25:58 51°14.085 2°55.435 7.1 351 4 101780 66
2004-02-24 07:26:04 51°14.098 2°55.425 7.4 346 4 101780 67
2004-02-24 07:26:08 51°14.107 2°55.419 9.2 337 4 101780 67
2004-02-24 07:26:13 51°14.119 2°55.412 7.2 317 4 101790 67
2004-02-24 07:26:18 51°14.131 2°55.404 7.2 312 4 101790 67
2004-02-24 07:26:22 51°14.141 2°55.397 8.2 333 4 101790 67
2004-02-24 07:26:28 51°14.156 2°55.386 10.1 331 4 101790 67
2004-02-24 07:26:33 51°14.168 2°55.376 7.8 351 4 101790 67
2004-02-24 07:26:38 51°14.18 2°55.366 11.2 334 4 101790 67
2004-02-24 07:26:43 51°14.192 2°55.354 12.7 331 4 101770 67
2004-02-24 07:26:48 51°14.203 2°55.341 13.3 336 4 101770 67
2004-02-24 07:26:53 51°14.214 2°55.328 12.8 347 4 101780 67
2004-02-24 07:26:58 51°14.226 2°55.313 12.6 339 4 101780 67
2004-02-24 07:27:03 51°14.236 2°55.298 12.4 334 4 101780 68
2004-02-24 07:27:08 51°14.247 2°55.282 12.9 340 4 101780 68
2004-02-24 07:27:13 51°14.258 2°55.266 13 335 4 101770 68
2004-02-24 07:27:18 51°14.268 2°55.248 14 341 4 101770 68
2004-02-24 07:27:22 51°14.276 2°55.234 11.1 341 4 101770 68
2004-02-24 07:27:28 51°14.288 2°55.211 12 329 4 101770 68
2004-02-24 07:27:32 51°14.296 2°55.196 14 343 4 101770 68
2004-02-24 07:27:38 51°14.309 2°55.173 12.1 327 4 101770 68
2004-02-24 07:27:43 51°14.319 2°55.153 13.1 337 4 101770 68
2004-02-24 07:27:48 51°14.33 2°55.134 11.5 338 4 101770 68
2004-02-24 07:27:53 51°14.34 2°55.113 14.8 335 4 101770 68
2004-02-24 07:27:58 51°14.351 2°55.093 13.8 339 4 101770 68
2004-02-24 07:28:02 51°14.359 2°55.077 14.8 334 4 101760 68
2004-02-24 07:28:08 51°14.372 2°55.053 14.9 332 4 101760 68
2004-02-24 07:28:12 51°14.381 2°55.037 14 335 4 101760 68
2004-02-24 07:28:18 51°14.394 2°55.013 14.6 339 4 101760 68
2004-02-24 07:28:22 51°14.402 2°54.996 13.7 339 4 101730 68
2004-02-24 07:28:28 51°14.414 2°54.969 14.2 348 4 101730 68
2004-02-24 07:28:33 51°14.423 2°54.946 14.7 344 4 101720 69
2004-02-24 07:28:38 51°14.432 2°54.922 14 343 4 101720 69
2004-02-24 07:28:43 51°14.44 2°54.898 15.9 343 4 101730 69
2004-02-24 07:28:48 51°14.448 2°54.875 14.1 341 4 101730 69
2004-02-24 07:28:53 51°14.456 2°54.854 14.5 337 4 101730 69
2004-02-24 07:28:58 51°14.464 2°54.833 13.5 336 4 101730 69
2004-02-24 07:29:03 51°14.472 2°54.813 13.8 335 4 101730 69
2004-02-24 07:29:08 51°14.48 2°54.794 13.1 333 4 101730 69
2004-02-24 07:29:13 51°14.488 2°54.777 12.5 334 4 101740 68
2004-02-24 07:29:18 51°14.496 2°54.761 12.4 331 4 101740 68
2004-02-24 07:29:22 51°14.503 2°54.748 13.1 327 4 101750 68
2004-02-24 07:29:28 51°14.512 2°54.73 12.5 322 4 101750 68
2004-02-24 07:29:33 51°14.521 2°54.716 13.4 324 4 101740 69
2004-02-24 07:29:38 51°14.529 2°54.703 12.9 318 4 101740 69
2004-02-24 07:29:42 51°14.535 2°54.692 12.7 317 4 101740 69
2004-02-24 07:29:48 51°14.544 2°54.676 12.5 319 4 101740 69
2004-02-24 07:29:53 51°14.552 2°54.663 11.6 320 4 101740 69
2004-02-24 07:29:58 51°14.559 2°54.651 12.4 317 4 101740 69
2004-02-24 07:30:02 51°14.565 2°54.641 12.3 322 4 101750 69
2004-02-24 07:30:08 51°14.574 2°54.626 12.6 315 4 101750 69
2004-02-24 07:30:13 51°14.581 2°54.613 12.6 318 4 101740 69
2004-02-24 07:30:18 51°14.588 2°54.6 12 323 4 101740 69
2004-02-24 07:30:22 51°14.593 2°54.59 11.2 329 4 101740 69
2004-02-24 07:30:28 51°14.602 2°54.576 12.3 326 4 101740 69
2004-02-24 07:30:33 51°14.608 2°54.563 12 323 4 101750 69
2004-02-24 07:30:38 51°14.615 2°54.551 12.3 324 4 101750 69
2004-02-24 07:30:43 51°14.622 2°54.538 12 322 4 101740 69
2004-02-24 07:30:48 51°14.628 2°54.525 11.3 323 4 101740 69
2004-02-24 07:30:53 51°14.635 2°54.513 11.9 325 4 101750 69
2004-02-24 07:30:58 51°14.641 2°54.5 12.1 323 4 101750 69
2004-02-24 07:31:02 51°14.646 2°54.49 12.3 324 4 101750 69
2004-02-24 07:31:08 51°14.654 2°54.474 12 326 4 101750 69
2004-02-24 07:31:12 51°14.659 2°54.464 10.7 332 4 101750 70
2004-02-24 07:31:18 51°14.666 2°54.449 11.7 334 4 101750 70
2004-02-24 07:31:22 51°14.671 2°54.438 10.5 333 4 101750 70
2004-02-24 07:31:28 51°14.678 2°54.423 11 331 4 101750 70
2004-02-24 07:31:33 51°14.684 2°54.41 13.6 334 4.1 101740 70
2004-02-24 07:31:38 51°14.69 2°54.398 12.5 331 4.1 101740 70
2004-02-24 07:31:43 51°14.696 2°54.385 13.1 329 4.1 101750 70
2004-02-24 07:31:48 51°14.702 2°54.373 13.4 326 4.1 101750 70
2004-02-24 07:31:53 51°14.709 2°54.361 12.2 325 4.1 101740 70
2004-02-24 07:31:58 51°14.715 2°54.349 13.1 326 4.1 101740 70
2004-02-24 07:32:03 51°14.722 2°54.338 12.7 322 4.1 101740 70
2004-02-24 07:32:08 51°14.729 2°54.327 12.5 326 4.1 101740 70
2004-02-24 07:32:13 51°14.736 2°54.315 12.2 323 4 101740 70
2004-02-24 07:32:18 51°14.743 2°54.305 12.7 38 4 101740 70
2004-02-24 07:32:22 51°14.748 2°54.296 12.5 317 4 101740 69
2004-02-24 07:32:28 51°14.757 2°54.284 11.2 317 4 101740 69
2004-02-24 07:32:33 51°14.764 2°54.273 11.3 317 4 101740 69
2004-02-24 07:32:38 51°14.772 2°54.264 12.7 316 4 101740 69
2004-02-24 07:32:43 51°14.779 2°54.254 11 315 4 101740 69
2004-02-24 07:32:48 51°14.787 2°54.244 11.2 316 4 101740 69
2004-02-24 07:32:53 51°14.794 2°54.234 11.5 43 4 101740 69
2004-02-24 07:32:58 51°14.802 2°54.225 12.2 42 4 101740 69
2004-02-24 07:33:02 51°14.808 2°54.217 11.9 41 4 101740 70
2004-02-24 07:33:08 51°14.817 2°54.206 11.9 317 4 101740 70
2004-02-24 07:33:12 51°14.823 2°54.199 11.4 315 4 101740 70
2004-02-24 07:33:18 51°14.832 2°54.188 10.8 41 4 101740 70
2004-02-24 07:33:22 51°14.838 2°54.18 11.9 319 4 101740 70
2004-02-24 07:33:28 51°14.849 2°54.167 13.8 322 4 101740 70
2004-02-24 07:33:32 51°14.856 2°54.158 13.4 320 4 101730 70
2004-02-24 07:33:38 51°14.868 2°54.143 13.5 322 4 101730 70
2004-02-24 07:33:42 51°14.877 2°54.132 13.1 325 4 101740 70
2004-02-24 07:33:48 51°14.891 2°54.116 13.7 322 4 101740 70
2004-02-24 07:33:53 51°14.903 2°54.101 12.3 328 4 101720 70
2004-02-24 07:33:58 51°14.916 2°54.086 13.6 326 4 101720 70
2004-02-24 07:34:02 51°14.926 2°54.073 14 323 4 101700 70
2004-02-24 07:34:08 51°14.942 2°54.053 13 328 4 101700 70
2004-02-24 07:34:13 51°14.956 2°54.036 15 326 4 101700 69
2004-02-24 07:34:18 51°14.97 2°54.019 13.7 329 4 101700 69
2004-02-24 07:34:22 51°14.981 2°54.005 13.4 332 4 101700 70
2004-02-24 07:34:28 51°14.998 2°53.983 14 327 4 101700 70
2004-02-24 07:34:33 51°15.012 2°53.965 14.2 328 4 101690 70
2004-02-24 07:34:38 51°15.026 2°53.946 13.9 331 4 101690 70
2004-02-24 07:34:42 51°15.037 2°53.931 15.2 333 4 101690 70
2004-02-24 07:34:48 51°15.054 2°53.908 14 334 4 101690 70
2004-02-24 07:34:53 51°15.068 2°53.889 15.9 334 4 101700 70
2004-02-24 07:34:58 51°15.083 2°53.87 15.1 331 4 101700 70
2004-02-24 07:35:02 51°15.095 2°53.855 14.3 332 4 101700 69
2004-02-24 07:35:08 51°15.112 2°53.832 15.9 334 4 101700 69
2004-02-24 07:35:13 51°15.126 2°53.813 15.4 333 4 101700 69
2004-02-24 07:35:18 51°15.141 2°53.793 14.2 333 4 101700 69
2004-02-24 07:35:22 51°15.153 2°53.779 14.7 330 4 101690 69
2004-02-24 07:35:28 51°15.171 2°53.756 14.9 330 4 101690 69
2004-02-24 07:35:33 51°15.186 2°53.739 14.2 328 4 101700 69
2004-02-24 07:35:38 51°15.202 2°53.723 13.5 325 4 101700 69
2004-02-24 07:35:42 51°15.215 2°53.711 14.2 323 4 101700 69
2004-02-24 07:35:48 51°15.235 2°53.694 12.8 327 4 101700 69
2004-02-24 07:35:53 51°15.252 2°53.681 13.6 327 4 101700 68
2004-02-24 07:35:58 51°15.269 2°53.668 13.3 321 4 101700 68
2004-02-24 07:36:02 51°15.283 2°53.658 14.2 324 4 101700 68
2004-02-24 07:36:08 51°15.303 2°53.642 14 326 4 101700 68
2004-02-24 07:36:13 51°15.321 2°53.628 14.5 323 4 101710 69
2004-02-24 07:36:18 51°15.338 2°53.615 14.3 323 4 101710 69
2004-02-24 07:36:22 51°15.351 2°53.604 13 327 4 101700 69
2004-02-24 07:36:28 51°15.371 2°53.587 14.2 325 4 101700 69
2004-02-24 07:36:33 51°15.388 2°53.573 14.7 326 4 101700 69
2004-02-24 07:36:38 51°15.405 2°53.559 14.2 324 4 101700 69
2004-02-24 07:36:42 51°15.419 2°53.548 13.4 322 4 101700 68
2004-02-24 07:36:48 51°15.44 2°53.531 13.6 320 4 101700 68
2004-02-24 07:36:53 51°15.457 2°53.517 13.9 321 4 101700 68
2004-02-24 07:36:58 51°15.474 2°53.503 12.9 324 4 101700 68
2004-02-24 07:37:03 51°15.491 2°53.489 12.9 327 4 101690 68
2004-02-24 07:37:08 51°15.508 2°53.475 14 325 4 101690 68
2004-02-24 07:37:13 51°15.525 2°53.46 15.6 324 4 101700 68
2004-02-24 07:37:18 51°15.542 2°53.446 14.3 323 4 101700 68
2004-02-24 07:37:22 51°15.556 2°53.435 14.8 322 4 101700 69
2004-02-24 07:37:28 51°15.577 2°53.418 14.4 324 4 101700 69
2004-02-24 07:37:33 51°15.594 2°53.405 14.8 326 4 101700 69
2004-02-24 07:37:38 51°15.611 2°53.39 14.6 325 4 101700 69
2004-02-24 07:37:44 51°15.632 2°53.372 16.3 322 4 101690 69
2004-02-24 07:37:48 51°15.645 2°53.361 16.3 324 4 101690 69
2004-02-24 07:37:52 51°15.659 2°53.349 13.2 319 4 101700 69
2004-02-24 07:37:58 51°15.68 2°53.331 14.5 321 4 101700 69
2004-02-24 07:38:02 51°15.693 2°53.32 13.9 325 4 101690 68
2004-02-24 07:38:08 51°15.714 2°53.303 14.9 320 4 101690 68
2004-02-24 07:38:13 51°15.731 2°53.289 13.4 326 4 101680 68
2004-02-24 07:38:18 51°15.747 2°53.274 13.8 329 4 101680 68
2004-02-24 07:38:22 51°15.761 2°53.262 15 327 4 101690 68
2004-02-24 07:38:28 51°15.781 2°53.244 16 323 4 101690 68
2004-02-24 07:38:33 51°15.798 2°53.23 14.7 325 4 101690 68
2004-02-24 07:38:38 51°15.815 2°53.215 15.6 323 4 101690 68
2004-02-24 07:38:43 51°15.832 2°53.202 15 321 4 101700 69
2004-02-24 07:38:48 51°15.85 2°53.189 14.6 322 4 101700 69
2004-02-24 07:38:53 51°15.867 2°53.177 14.3 320 4 101700 68
2004-02-24 07:38:58 51°15.885 2°53.164 13.1 318 4 101700 68
2004-02-24 07:39:02 51°15.899 2°53.155 14.4 319 4 101690 68
2004-02-24 07:39:08 51°15.919 2°53.141 15.3 42 4 101690 68
2004-02-24 07:39:13 51°15.937 2°53.13 14.7 316 4 101690 68
2004-02-24 07:39:18 51°15.955 2°53.119 13.9 228 4 101690 68
2004-02-24 07:39:22 51°15.969 2°53.111 13.5 315 4 101680 68
2004-02-24 07:39:28 51°15.99 2°53.099 12.6 315 4 101680 68
2004-02-24 07:39:33 51°16.009 2°53.089 15.2 315 4 101690 68
2004-02-24 07:39:38 51°16.027 2°53.08 14.9 42 4 101690 68
2004-02-24 07:39:42 51°16.041 2°53.073 13.5 314 4 101690 68
2004-02-24 07:39:48 51°16.063 2°53.061 13.1 314 4 101690 68
2004-02-24 07:39:52 51°16.077 2°53.054 11.6 318 4 101690 68
2004-02-24 07:39:58 51°16.099 2°53.043 12.1 42 4 101690 68
2004-02-24 07:40:02 51°16.113 2°53.035 11.4 322 4 101700 68
2004-02-24 07:40:08 51°16.135 2°53.023 12.3 322 4 101700 68
2004-02-24 07:40:12 51°16.149 2°53.015 12.3 322 4 101690 68
2004-02-24 07:40:18 51°16.171 2°53.003 11.6 322 4 101690 68
2004-02-24 07:40:22 51°16.185 2°52.995 12.8 324 4 101690 69
2004-02-24 07:40:28 51°16.207 2°52.984 13.9 324 4 101690 69
2004-02-24 07:40:32 51°16.221 2°52.976 14.1 322 4.1 101700 69
2004-02-24 07:40:38 51°16.243 2°52.965 14.5 322 4.1 101700 69
2004-02-24 07:40:42 51°16.257 2°52.957 14.9 324 4.1 101690 69
2004-02-24 07:40:48 51°16.279 2°52.945 13.8 320 4.1 101690 69
2004-02-24 07:40:53 51°16.296 2°52.936 14.2 319 4.1 101690 69
2004-02-24 07:40:58 51°16.314 2°52.926 14.7 322 4.1 101690 69
2004-02-24 07:41:02 51°16.329 2°52.918 12.8 323 4 101690 69
2004-02-24 07:41:08 51°16.35 2°52.905 14.4 316 4 101690 69
2004-02-24 07:41:12 51°16.365 2°52.897 14.9 321 4 101690 68
2004-02-24 07:41:18 51°16.386 2°52.885 14.5 326 4 101690 68
2004-02-24 07:41:22 51°16.4 2°52.878 13.7 318 4 101700 68
2004-02-24 07:41:28 51°16.422 2°52.865 14.8 316 4 101700 68
2004-02-24 07:41:32 51°16.436 2°52.857 14.9 318 4 101690 68
2004-02-24 07:41:38 51°16.457 2°52.845 14.4 319 4 101690 68
2004-02-24 07:41:43 51°16.475 2°52.835 14.2 316 4 101690 67
2004-02-24 07:41:48 51°16.493 2°52.825 14.9 315 4 101690 67
2004-02-24 07:41:52 51°16.508 2°52.817 14.2 317 4 101690 67
2004-02-24 07:41:58 51°16.529 2°52.805 14.3 319 4 101690 67
2004-02-24 07:42:02 51°16.543 2°52.797 13.4 316 4 101690 67
2004-02-24 07:42:08 51°16.564 2°52.785 13.2 40 4 101690 67
2004-02-24 07:42:13 51°16.582 2°52.775 13.4 42 4 101680 67
2004-02-24 07:42:18 51°16.6 2°52.765 13.3 42 4 101680 67
2004-02-24 07:42:22 51°16.614 2°52.757 12.3 319 4 101690 66
2004-02-24 07:42:28 51°16.635 2°52.744 14.5 43 4 101690 66
2004-02-24 07:42:32 51°16.65 2°52.736 12.5 318 4 101690 67
2004-02-24 07:42:38 51°16.671 2°52.724 13.1   4 101690 67
2004-02-24 07:42:42 51°16.685 2°52.715 14.4 43 4 101690 67
2004-02-24 07:42:48 51°16.707 2°52.703 13.4 316 4 101690 67
2004-02-24 07:42:53 51°16.724 2°52.692 15.3 324 4 101700 67
2004-02-24 07:42:58 51°16.742 2°52.682 13.9 319 4 101700 67
2004-02-24 07:43:02 51°16.756 2°52.674 15.1 320 4 101690 67
2004-02-24 07:43:08 51°16.777 2°52.663 15.6 317 4 101690 67
2004-02-24 07:43:13 51°16.794 2°52.653 13.6 316 4 101680 66
2004-02-24 07:43:18 51°16.812 2°52.643 13.1 317 4 101680 66
2004-02-24 07:43:23 51°16.83 2°52.633 12.8 319 4 101690 66
2004-02-24 07:43:28 51°16.848 2°52.623 13.9 317 4 101690 66
2004-02-24 07:43:32 51°16.862 2°52.615 12.5 321 4 101680 66
2004-02-24 07:43:38 51°16.883 2°52.603 13.3   4 101680 66
2004-02-24 07:43:42 51°16.897 2°52.596 14.8 316 4 101680 66
2004-02-24 07:43:48 51°16.918 2°52.584 15.2 321 4 101680 66
2004-02-24 07:43:53 51°16.936 2°52.574 14 318 4 101690 66
2004-02-24 07:43:58 51°16.954 2°52.565 14.2 321 4 101690 66
2004-02-24 07:44:03 51°16.972 2°52.555 13.4 320 4 101690 66
2004-02-24 07:44:08 51°16.99 2°52.546 14 320 4 101690 66
2004-02-24 07:44:12 51°17.004 2°52.538 13.1 320 4 101690 65
2004-02-24 07:44:18 51°17.026 2°52.527 13.1 321 4 101690 65
2004-02-24 07:44:23 51°17.043 2°52.517 13.6 322 4 101690 64
2004-02-24 07:44:28 51°17.061 2°52.508 14 320 4 101690 64
2004-02-24 07:44:32 51°17.075 2°52.5 13.6 318 4 101690 64
2004-02-24 07:44:38 51°17.097 2°52.488 13.5   4 101690 64
2004-02-24 07:44:44 51°17.118 2°52.477 13.1 324 3.9 101690 64
2004-02-24 07:44:48 51°17.132 2°52.469 14.3 322 3.9 101690 64
2004-02-24 07:44:52 51°17.147 2°52.461 14.1 320 4 101680 63
2004-02-24 07:44:58 51°17.168 2°52.45 13.2 321 4 101680 63
2004-02-24 07:45:03 51°17.186 2°52.44 12.8 321 4 101680 64
2004-02-24 07:45:08 51°17.204 2°52.43 13.5 321 4 101680 64
2004-02-24 07:45:13 51°17.222 2°52.42 13.5 320 4 101680 63
2004-02-24 07:45:18 51°17.241 2°52.41 13.7 318 4 101680 63
2004-02-24 07:45:22 51°17.255 2°52.402 13.5 319 4 101690 63
2004-02-24 07:45:28 51°17.277 2°52.389 12.8 319 4 101690 63
2004-02-24 07:45:33 51°17.294 2°52.379 13.8 320 4 101690 63
2004-02-24 07:45:38 51°17.313 2°52.368 14.5 318 4 101690 63
2004-02-24 07:45:44 51°17.334 2°52.356 14.5 329 4 101690 63
2004-02-24 07:45:48 51°17.349 2°52.348 15.7 319 4 101690 63
2004-02-24 07:45:53 51°17.367 2°52.337 16.3 321 4 101690 63
2004-02-24 07:45:58 51°17.384 2°52.325 15.7 322 4 101690 63
2004-02-24 07:46:03 51°17.401 2°52.311 17 324 4 101690 64
2004-02-24 07:46:08 51°17.417 2°52.296 15.9 328 4 101690 64
2004-02-24 07:46:13 51°17.433 2°52.279 15.7 323 4 101690 63
2004-02-24 07:46:18 51°17.449 2°52.261 15.2 329 4 101690 63
2004-02-24 07:46:22 51°17.461 2°52.247 15.9 331 4 101680 62
2004-02-24 07:46:28 51°17.48 2°52.226 16.3 328 4 101680 62
2004-02-24 07:46:32 51°17.492 2°52.211 16.1 326 4 101680 63
2004-02-24 07:46:38 51°17.511 2°52.189 15.3   4 101680 63
2004-02-24 07:46:43 51°17.526 2°52.171 15.6 333 4 101670 63
2004-02-24 07:46:48 51°17.541 2°52.152 16.3 332 4 101670 63
2004-02-24 07:46:53 51°17.556 2°52.131 15.8 337 4 101680 62
2004-02-24 07:46:58 51°17.569 2°52.109 16.1 334 4 101680 62
2004-02-24 07:47:02 51°17.579 2°52.091 15 339 4 101670 63
2004-02-24 07:47:08 51°17.593 2°52.062 15.6 340 4 101670 63
2004-02-24 07:47:13 51°17.605 2°52.038 16 337 4 101680 63
2004-02-24 07:47:18 51°17.616 2°52.013 16.6 341 4 101680 63
2004-02-24 07:47:23 51°17.628 2°51.988 16.5 340 4 101680 63
2004-02-24 07:47:28 51°17.639 2°51.963 16.8 338 4 101680 63
2004-02-24 07:47:32 51°17.648 2°51.943 14.4 341 4 101680 63
2004-02-24 07:47:38 51°17.661 2°51.913 16.2   4 101680 63
2004-02-24 07:47:42 51°17.67 2°51.893 16.1 337 4 101680 63
2004-02-24 07:47:48 51°17.684 2°51.864 16.5 337 4 101680 63
2004-02-24 07:47:53 51°17.696 2°51.839 16 338 4 101680 62
2004-02-24 07:47:58 51°17.708 2°51.815 16.4 337 4 101680 62
2004-02-24 07:48:03 51°17.719 2°51.791 15.3 335 4 101690 63
2004-02-24 07:48:08 51°17.731 2°51.766 15.9 338 4 101690 63
2004-02-24 07:48:13 51°17.742 2°51.741 14.4 336 4 101690 62
2004-02-24 07:48:18 51°17.754 2°51.717 14.7 340 4 101690 62
2004-02-24 07:48:22 51°17.763 2°51.698 15.3 342 4 101680 62
2004-02-24 07:48:28 51°17.777 2°51.668 14.9 342 4 101680 62
2004-02-24 07:48:33 51°17.789 2°51.644 16.6 343 4 101680 62
2004-02-24 07:48:38 51°17.8 2°51.619 16.8   4 101680 62
2004-02-24 07:48:43 51°17.812 2°51.594 16.6 341 4 101690 63
2004-02-24 07:48:48 51°17.823 2°51.57 17.4 341 4 101690 63
2004-02-24 07:48:53 51°17.835 2°51.545 17.3 340 4 101690 64
2004-02-24 07:48:58 51°17.846 2°51.52 16.6 340 4 101690 64
2004-02-24 07:49:02 51°17.856 2°51.5 15.2 341 4 101680 63
2004-02-24 07:49:08 51°17.87 2°51.471 15.9 338 4 101680 63
2004-02-24 07:49:13 51°17.881 2°51.446 16.2 343 4 101680 63
2004-02-24 07:49:18 51°17.893 2°51.421 16.8 340 4 101680 63
2004-02-24 07:49:22 51°17.903 2°51.401 15.4 342 4 101680 62
2004-02-24 07:49:28 51°17.917 2°51.372 15.3 340 4 101680 62
2004-02-24 07:49:32 51°17.927 2°51.352 15.5 338 4 101680 63
2004-02-24 07:49:38 51°17.941 2°51.322 15.7   4 101680 63
2004-02-24 07:49:42 51°17.95 2°51.302 16.8 344 4 101690 63
2004-02-24 07:49:48 51°17.965 2°51.272 16.6 343 4 101690 63
2004-02-24 07:49:53 51°17.977 2°51.247 17.4 341 4 101680 63
2004-02-24 07:49:58 51°17.989 2°51.223 17 340 4 101680 63
2004-02-24 07:50:03 51°18.001 2°51.198 16.7 338 4 101680 63
2004-02-24 07:50:08 51°18.013 2°51.173 17.9 339 4 101680 63
2004-02-24 07:50:13 51°18.025 2°51.147 17.8 337 4 101680 63
2004-02-24 07:50:18 51°18.036 2°51.123 15.8 334 4 101680 63
2004-02-24 07:50:24 51°18.051 2°51.093 15.9 341 4 101680 63
2004-02-24 07:50:28 51°18.06 2°51.072 15 340 4 101680 63
2004-02-24 07:50:33 51°18.072 2°51.048 16.1 342 4 101680 62
2004-02-24 07:50:38 51°18.084 2°51.022 16.4   4 101680 62
2004-02-24 07:50:43 51°18.096 2°50.998 16.5 337 4 101680 63
2004-02-24 07:50:48 51°18.108 2°50.973 15.3 340 4 101680 63
2004-02-24 07:50:53 51°18.12 2°50.949 16.3 341 4 101690 63
2004-02-24 07:50:58 51°18.132 2°50.924 16.1 342 4 101690 63
2004-02-24 07:51:02 51°18.142 2°50.904 16 339 4 101680 63
2004-02-24 07:51:08 51°18.156 2°50.875 16.3 341 4 101680 63
2004-02-24 07:51:13 51°18.168 2°50.85 17.3 340 4 101690 62
2004-02-24 07:51:18 51°18.18 2°50.825 16 339 4 101690 62
2004-02-24 07:51:22 51°18.189 2°50.806 16.2 340 4 101680 63
2004-02-24 07:51:28 51°18.203 2°50.776 15.6 339 4 101680 63
2004-02-24 07:51:33 51°18.215 2°50.751 15.6 338 4 101680 62
2004-02-24 07:51:38 51°18.227 2°50.727 16.6   4 101680 62
2004-02-24 07:51:43 51°18.239 2°50.702 16.9 340 4 101680 63
2004-02-24 07:51:48 51°18.251 2°50.678 15.3 340 4 101680 63
2004-02-24 07:51:53 51°18.263 2°50.653 16.5 341 4 101680 63
2004-02-24 07:51:58 51°18.275 2°50.629 16.4 347 4 101680 63
2004-02-24 07:52:02 51°18.284 2°50.609 16.8 342 4 101680 63
2004-02-24 07:52:08 51°18.299 2°50.58 16.5 341 4 101680 63
2004-02-24 07:52:13 51°18.311 2°50.555 17.8 337 4 101680 63
2004-02-24 07:52:18 51°18.322 2°50.531 17.5 340 4 101680 63
2004-02-24 07:52:22 51°18.332 2°50.511 16.1 337 4 101670 63
2004-02-24 07:52:28 51°18.346 2°50.482 16 340 4 101670 63
2004-02-24 07:52:32 51°18.356 2°50.462 15.7 347 4 101680 62
2004-02-24 07:52:38 51°18.37 2°50.433 16.9   4 101680 62
2004-02-24 07:52:42 51°18.38 2°50.414 16.4 345 4 101680 62
2004-02-24 07:52:48 51°18.395 2°50.385 17 345 4 101680 62
2004-02-24 07:52:52 51°18.404 2°50.366 17.5 344 4 101670 61
2004-02-24 07:52:58 51°18.419 2°50.337 17.6 341 4 101670 61
2004-02-24 07:53:03 51°18.431 2°50.313 16.2 342 4 101680 61
2004-02-24 07:53:08 51°18.443 2°50.289 16.4 341 4 101680 61
2004-02-24 07:53:13 51°18.455 2°50.265 15.8 345 3.9 101670 61
2004-02-24 07:53:18 51°18.467 2°50.241 16.4 340 3.9 101670 61
2004-02-24 07:53:24 51°18.481 2°50.212 16.3 338 3.9 101670 60
2004-02-24 07:53:28 51°18.491 2°50.193 17.4 338 3.9 101670 60
2004-02-24 07:53:33 51°18.503 2°50.169 17 338 4 101680 60
2004-02-24 07:53:38 51°18.515 2°50.145 16.4   4 101680 60
2004-02-24 07:53:42 51°18.524 2°50.126 16.9 339 4 101680 60
2004-02-24 07:53:48 51°18.539 2°50.097 16.1 339 4 101680 60
2004-02-24 07:53:53 51°18.55 2°50.073 17.2 338 4 101680 60
2004-02-24 07:53:58 51°18.562 2°50.048 16.7 340 4 101680 60
2004-02-24 07:54:02 51°18.571 2°50.028 17.4 343 4 101680 60
2004-02-24 07:54:08 51°18.585 2°49.999 16.8 336 4 101680 60
2004-02-24 07:54:13 51°18.596 2°49.974 16.1 343 4 101690 60
2004-02-24 07:54:18 51°18.608 2°49.949 16.2 345 4 101690 60
2004-02-24 07:54:23 51°18.619 2°49.924 17.3 343 4 101680 60
2004-02-24 07:54:28 51°18.63 2°49.898 16.7 343 4 101680 60
2004-02-24 07:54:33 51°18.641 2°49.873 18.2 346 4 101680 60
2004-02-24 07:54:38 51°18.652 2°49.848 17.3   4 101680 60
2004-02-24 07:54:43 51°18.663 2°49.823 17.3 338 4 101680 61
2004-02-24 07:54:48 51°18.674 2°49.798 17.1 342 4 101680 61
2004-02-24 07:54:53 51°18.685 2°49.773 16.5 344 4 101680 61
2004-02-24 07:54:58 51°18.696 2°49.748 17.3 340 4 101680 61
2004-02-24 07:55:03 51°18.707 2°49.723 15.6 342 4 101680 60
2004-02-24 07:55:08 51°18.718 2°49.698 15.9 339 4 101680 60
2004-02-24 07:55:13 51°18.729 2°49.673 16.7 342 4 101680 60
2004-02-24 07:55:18 51°18.74 2°49.647 16.4 344 4 101680 60
2004-02-24 07:55:22 51°18.749 2°49.627 15.4 343 4 101680 61
2004-02-24 07:55:28 51°18.762 2°49.597 15.7 344 4 101680 61
2004-02-24 07:55:32 51°18.771 2°49.576 16.2 339 4 101680 61
2004-02-24 07:55:38 51°18.784 2°49.546 16.3   4 101680 61
2004-02-24 07:55:42 51°18.793 2°49.526 16.5 340 4 101680 61
2004-02-24 07:55:48 51°18.807 2°49.496 16 337 4 101680 61
2004-02-24 07:55:53 51°18.818 2°49.47 15.5 340 4 101690 61
2004-02-24 07:55:58 51°18.829 2°49.445 16.5 336 4 101690 61
2004-02-24 07:56:02 51°18.838 2°49.425 15.8 345 4 101680 61
2004-02-24 07:56:08 51°18.852 2°49.395 16 343 4 101680 61
2004-02-24 07:56:12 51°18.861 2°49.374 16.8 340 4 101670 61
2004-02-24 07:56:18 51°18.874 2°49.343 15.7 341 4 101670 61
2004-02-24 07:56:22 51°18.884 2°49.323 16.8 342 4 101680 62
2004-02-24 07:56:28 51°18.897 2°49.292 17.4 344 4 101680 62
2004-02-24 07:56:32 51°18.906 2°49.271 17.1 344 4 101690 62
2004-02-24 07:56:38 51°18.92 2°49.24 17.5   4 101690 62
2004-02-24 07:56:43 51°18.932 2°49.214 15.6 346 4 101670 63
2004-02-24 07:56:48 51°18.943 2°49.188 16.6 339 4 101670 63
2004-02-24 07:56:53 51°18.955 2°49.163 17.3 342 4 101690 63
2004-02-24 07:56:58 51°18.966 2°49.137 14.4 349 4 101690 63
2004-02-24 07:57:02 51°18.975 2°49.117 17.8 342 4 101670 63
2004-02-24 07:57:08 51°18.989 2°49.086 17.4 342 4 101670 63
2004-02-24 07:57:13 51°19 2°49.06 16.6 341 4 101670 63
2004-02-24 07:57:18 51°19.012 2°49.035 16.9 338 4 101670 63
2004-02-24 07:57:22 51°19.021 2°49.014 15.7 338 4 101670 63
2004-02-24 07:57:28 51°19.035 2°48.984 16.8 338 4 101670 63
2004-02-24 07:57:32 51°19.044 2°48.963 16.9 337 4 101680 62
2004-02-24 07:57:38 51°19.058 2°48.932 17.3   4 101680 62
2004-02-24 07:57:42 51°19.067 2°48.912 16.1 340 4 101670 62
2004-02-24 07:57:48 51°19.081 2°48.881 15.3 337 4 101670 62
2004-02-24 07:57:53 51°19.092 2°48.855 15.3 335 4 101680 62
2004-02-24 07:57:58 51°19.103 2°48.829 15.8 338 4 101680 62
2004-02-24 07:58:03 51°19.114 2°48.803 16.1 338 4 101680 63
2004-02-24 07:58:08 51°19.126 2°48.777 15 343 4 101680 63
2004-02-24 07:58:13 51°19.137 2°48.752 16.5 348 4 101680 63
2004-02-24 07:58:18 51°19.148 2°48.726 17.1 347 4 101680 63
2004-02-24 07:58:23 51°19.16 2°48.7 15.6 343 4 101690 63
2004-02-24 07:58:28 51°19.171 2°48.675 15.2 339 4 101690 63
2004-02-24 07:58:33 51°19.182 2°48.649 16.3 341 4 101680 63
2004-02-24 07:58:38 51°19.193 2°48.623 16.1   4 101680 63
2004-02-24 07:58:42 51°19.203 2°48.603 17 343 4 101680 63
2004-02-24 07:58:48 51°19.216 2°48.572 17.9 342 4 101680 63
2004-02-24 07:58:52 51°19.225 2°48.552 18 348 4 101670 63
2004-02-24 07:58:58 51°19.239 2°48.521 17.6 345 4 101670 63
2004-02-24 07:59:02 51°19.248 2°48.501 17.5 344 4 101680 63
2004-02-24 07:59:08 51°19.261 2°48.471 19.4 343 4 101680 63
2004-02-24 07:59:12 51°19.27 2°48.45 18.3 341 4 101670 63
2004-02-24 07:59:18 51°19.283 2°48.42 17.8 344 4 101670 63
2004-02-24 07:59:22 51°19.292 2°48.399 17.5 340 4 101670 63
2004-02-24 07:59:28 51°19.306 2°48.369 18 343 4 101670 63
2004-02-24 07:59:33 51°19.317 2°48.343 16.1 345 4 101670 63
2004-02-24 07:59:38 51°19.327 2°48.318 17.2 343 4 101670 63
2004-02-24 07:59:43 51°19.338 2°48.292 17.4 342 4 101670 63
2004-02-24 07:59:48 51°19.348 2°48.266 17.6 343 4 101670 63
2004-02-24 07:59:53 51°19.359 2°48.24 17.4 344 3.9 101660 63
2004-02-24 07:59:58 51°19.369 2°48.213 16.1 343 3.9 101660 63
2004-02-24 08:00:02 51°19.377 2°48.193 17.1 343 3.9 101660 63
2004-02-24 08:00:08 51°19.389 2°48.161 16.3 342 3.9 101660 63
2004-02-24 08:00:13 51°19.399 2°48.135 16.9 345 3.9 101680 62
2004-02-24 08:00:18 51°19.409 2°48.108 17.2 345 3.9 101680 62
2004-02-24 08:00:23 51°19.42 2°48.082 17.5 344 3.9 101660 62
2004-02-24 08:00:28 51°19.43 2°48.056 17.5 340 3.9 101660 62
2004-02-24 08:00:32 51°19.438 2°48.035 17.2 343 3.9 101680 62
2004-02-24 08:00:38 51°19.45 2°48.003 16.7 339 3.9 101680 62
2004-02-24 08:00:43 51°19.46 2°47.977 17.6 340 3.9 101670 62
2004-02-24 08:00:48 51°19.47 2°47.951 17.3 337 3.9 101670 62
2004-02-24 08:00:52 51°19.479 2°47.929 17.8 341 3.9 101670 61
2004-02-24 08:00:58 51°19.491 2°47.898 17.2 340 3.9 101670 61
2004-02-24 08:01:03 51°19.501 2°47.871 17.5 340 3.9 101660 61
2004-02-24 08:01:08 51°19.512 2°47.845 17.2 337 3.9 101660 61
2004-02-24 08:01:13 51°19.522 2°47.819 16.5 341 3.9 101670 62
2004-02-24 08:01:18 51°19.532 2°47.793 16.4 336 3.9 101670 62
2004-02-24 08:01:22 51°19.54 2°47.771 15.1 340 3.9 101660 62
2004-02-24 08:01:28 51°19.552 2°47.74 16.8 345 3.9 101660 62
2004-02-24 08:01:33 51°19.562 2°47.713 16.8 343 3.9 101670 62
2004-02-24 08:01:38 51°19.572 2°47.687 16.7 343 3.9 101670 62
2004-02-24 08:01:42 51°19.58 2°47.665 16.5 346 3.9 101670 63
2004-02-24 08:01:48 51°19.593 2°47.634 16 340 3.9 101670 63
2004-02-24 08:01:53 51°19.603 2°47.607 16 341 3.9 101670 63
2004-02-24 08:01:58 51°19.613 2°47.581 16.2 343 3.9 101670 63
2004-02-24 08:02:02 51°19.621 2°47.56 16.1 342 3.9 101670 62
2004-02-24 08:02:08 51°19.634 2°47.528 16.1 346 3.9 101670 62
2004-02-24 08:02:13 51°19.644 2°47.502 18.4 342 3.9 101670 62
2004-02-24 08:02:18 51°19.654 2°47.476 15.8 347 3.9 101670 62
2004-02-24 08:02:22 51°19.662 2°47.455 16.1 344 3.9 101670 63
2004-02-24 08:02:28 51°19.673 2°47.422 15.9 345 3.9 101670 63
2004-02-24 08:02:33 51°19.682 2°47.395 15.6 348 3.9 101670 63
2004-02-24 08:02:38 51°19.691 2°47.367 16.7 346 3.9 101670 63
2004-02-24 08:02:43 51°19.7 2°47.34 16.1 347 4 101670 63
2004-02-24 08:02:48 51°19.708 2°47.312 15.4 354 4 101670 63
2004-02-24 08:02:52 51°19.715 2°47.289 16.6 352 3.9 101670 63
2004-02-24 08:02:58 51°19.724 2°47.255 17.7 353 3.9 101670 63
2004-02-24 08:03:03 51°19.732 2°47.226 16.2 351 3.9 101680 63
2004-02-24 08:03:08 51°19.741 2°47.199 17 346 3.9 101680 63
2004-02-24 08:03:13 51°19.749 2°47.17 17.3 351 3.9 101670 63
2004-02-24 08:03:18 51°19.757 2°47.142 17.2 346 3.9 101670 63
2004-02-24 08:03:22 51°19.763 2°47.119 16 351 3.9 101680 63
2004-02-24 08:03:28 51°19.773 2°47.085 16.2 344 3.9 101680 63
2004-02-24 08:03:32 51°19.78 2°47.063 16.8 350 3.9 101680 62
2004-02-24 08:03:38 51°19.79 2°47.029 15.8 352 3.9 101680 62
2004-02-24 08:03:43 51°19.798 2°47.001 16.5 352 3.9 101680 62
2004-02-24 08:03:48 51°19.806 2°46.972 15.6 347 3.9 101680 62
2004-02-24 08:03:53 51°19.814 2°46.944 16.5 349 3.9 101670 63
2004-02-24 08:03:58 51°19.822 2°46.916 15.6 350 3.9 101670 63
2004-02-24 08:04:02 51°19.829 2°46.893 16.6 349 3.9 101670 63
2004-02-24 08:04:08 51°19.838 2°46.859 16.7 348 3.9 101670 63
2004-02-24 08:04:12 51°19.845 2°46.837 17.7 350 3.9 101680 62
2004-02-24 08:04:18 51°19.854 2°46.803 17.2 353 3.9 101680 62
2004-02-24 08:04:23 51°19.861 2°46.773 17.6 348 3.9 101670 62
2004-02-24 08:04:28 51°19.868 2°46.744 16.1 354 3.9 101670 62
2004-02-24 08:04:33 51°19.874 2°46.715 16.7 353 3.9 101670 62
2004-02-24 08:04:38 51°19.88 2°46.685 16.6 347 3.9 101670 62
2004-02-24 08:04:43 51°19.886 2°46.655 16.2 356 3.9 101670 62
2004-02-24 08:04:48 51°19.891 2°46.625 16.2 349 3.9 101670 62
2004-02-24 08:04:53 51°19.897 2°46.595 16.3 353 3.9 101670 63
2004-02-24 08:04:58 51°19.902 2°46.564 15.8 353 3.9 101670 63
2004-02-24 08:05:02 51°19.907 2°46.54 15.8 352 3.9 101670 63
2004-02-24 08:05:08 51°19.914 2°46.504 15.5 350 3.9 101670 63
2004-02-24 08:05:13 51°19.92 2°46.474 16.2 349 3.9 101670 63
2004-02-24 08:05:18 51°19.926 2°46.443 16.6 349 3.9 101670 63
2004-02-24 08:05:23 51°19.932 2°46.413 17.3 343 3.9 101680 63
2004-02-24 08:05:28 51°19.937 2°46.383 17.3 351 3.9 101680 63
2004-02-24 08:05:33 51°19.943 2°46.353 18 348 3.9 101680 63
2004-02-24 08:05:38 51°19.949 2°46.323 15 358 3.9 101680 63
2004-02-24 08:05:43 51°19.955 2°46.293 17.3 354 3.9 101670 63
2004-02-24 08:05:48 51°19.961 2°46.263 17.4 352 3.9 101670 63
2004-02-24 08:05:53 51°19.967 2°46.233 17.3 353 3.9 101670 63
2004-02-24 08:05:58 51°19.973 2°46.203 17.9 350 3.9 101670 63
2004-02-24 08:06:02 51°19.978 2°46.179 17.2 349 4 101670 63
2004-02-24 08:06:08 51°19.985 2°46.143 17.9 352 4 101670 63
2004-02-24 08:06:13 51°19.991 2°46.113 17.3 351 3.9 101680 63
2004-02-24 08:06:18 51°19.997 2°46.083 19.1 347 3.9 101680 63
2004-02-24 08:06:22 51°20.001 2°46.059 15.3 347 3.9 101680 63
2004-02-24 08:06:28 51°20.009 2°46.022 18.6 351 3.9 101680 63
2004-02-24 08:06:33 51°20.015 2°45.992 18.2 351 3.9 101670 62
2004-02-24 08:06:38 51°20.021 2°45.961 17.1 349 3.9 101670 62
2004-02-24 08:06:43 51°20.026 2°45.931 18.3 351 3.9 101680 62
2004-02-24 08:06:48 51°20.032 2°45.901 18.8 351 3.9 101680 62
2004-02-24 08:06:53 51°20.037 2°45.87 17.7 351 3.9 101670 62
2004-02-24 08:06:58 51°20.043 2°45.84 17.9 353 3.9 101670 62
2004-02-24 08:07:03 51°20.049 2°45.81 16.7 352 3.9 101690 62
2004-02-24 08:07:08 51°20.055 2°45.779 16.3 355 3.9 101690 62
2004-02-24 08:07:13 51°20.061 2°45.749 18 356 3.9 101690 61
2004-02-24 08:07:18 51°20.067 2°45.718 16.9 355 3.9 101690 61
2004-02-24 08:07:22 51°20.072 2°45.694 18.3 356 3.9 101690 61
2004-02-24 08:07:28 51°20.078 2°45.657 17 354 3.9 101690 61
2004-02-24 08:07:33 51°20.085 2°45.627 17.1 355 3.9 101690 62
2004-02-24 08:07:38 51°20.091 2°45.597 16.8 351 3.9 101690 62
2004-02-24 08:07:43 51°20.097 2°45.566 16.3 354 3.9 101700 62
2004-02-24 08:07:48 51°20.103 2°45.535 17 352 3.9 101700 62
2004-02-24 08:07:52 51°20.108 2°45.511 16.5 351 3.9 101680 62
2004-02-24 08:07:58 51°20.115 2°45.474 16.7 352 3.9 101680 62
2004-02-24 08:08:02 51°20.12 2°45.45 17 351 3.9 101700 61
2004-02-24 08:08:08 51°20.127 2°45.413 16 351 3.9 101700 61
2004-02-24 08:08:12 51°20.132 2°45.389 16.2 352 3.9 101690 61
2004-02-24 08:08:18 51°20.139 2°45.353 16.3 352 3.9 101690 61
2004-02-24 08:08:22 51°20.144 2°45.329 17.2 349 3.9 101690 61
2004-02-24 08:08:28 51°20.151 2°45.292 17 352 3.9 101690 61
2004-02-24 08:08:33 51°20.157 2°45.262 17.7 350 3.9 101700 61
2004-02-24 08:08:38 51°20.163 2°45.232 17.1 351 3.9 101700 61
2004-02-24 08:08:42 51°20.167 2°45.207 16.1 349 3.9 101690 62
2004-02-24 08:08:48 51°20.174 2°45.171 16.1 354 3.9 101690 62
2004-02-24 08:08:53 51°20.179 2°45.141 16.4 353 3.9 101700 62
2004-02-24 08:08:58 51°20.184 2°45.11 18.1 358 3.9 101700 62
2004-02-24 08:09:03 51°20.189 2°45.08 17 357 3.9 101700 62
2004-02-24 08:09:08 51°20.193 2°45.049 16.3 357 3.9 101700 62
2004-02-24 08:09:12 51°20.196 2°45.024 16.7 354 3.9 101690 63
2004-02-24 08:09:18 51°20.201 2°44.987 16.7 353 3.9 101690 63
2004-02-24 08:09:23 51°20.206 2°44.957 15.7 355 3.9 101700 63
2004-02-24 08:09:28 51°20.21 2°44.926 14.7 355 3.9 101700 63
2004-02-24 08:09:32 51°20.214 2°44.902 15 352 3.9 101700 63
2004-02-24 08:09:38 51°20.218 2°44.866 15.6 355 3.9 101700 63
2004-02-24 08:09:43 51°20.223 2°44.835 16.6 358 3.9 101690 63
2004-02-24 08:09:48 51°20.227 2°44.805 17.4 359 3.9 101690 63
2004-02-24 08:09:52 51°20.23 2°44.781 17.5 359 3.9 101700 64
2004-02-24 08:09:58 51°20.235 2°44.744 16.7 358 3.9 101700 64
2004-02-24 08:10:03 51°20.24 2°44.714 16.2 354 4 101710 64
2004-02-24 08:10:08 51°20.244 2°44.684 18.2 355 4 101710 64
2004-02-24 08:10:12 51°20.247 2°44.66 17.5 351 4 101700 65
2004-02-24 08:10:18 51°20.252 2°44.623 18.1 356 4 101700 65
2004-02-24 08:10:23 51°20.257 2°44.593 18.7 352 4 101690 65
2004-02-24 08:10:28 51°20.261 2°44.563 16.5 354 4 101690 65
2004-02-24 08:10:32 51°20.264 2°44.538 18.8 352 4 101700 64
2004-02-24 08:10:38 51°20.269 2°44.502 17.5 352 4 101700 64
2004-02-24 08:10:43 51°20.274 2°44.472 18.4 354 3.9 101680 63
2004-02-24 08:10:48 51°20.278 2°44.442 18 353 3.9 101680 63
2004-02-24 08:10:52 51°20.281 2°44.417 18.5 353 3.9 101700 63
2004-02-24 08:10:58 51°20.286 2°44.381 17.8 354 3.9 101700 63
2004-02-24 08:11:02 51°20.288 2°44.356 18.6 354 3.9 101690 63
2004-02-24 08:11:08 51°20.293 2°44.32 16.7 354 3.9 101690 63
2004-02-24 08:11:13 51°20.297 2°44.289 16.3 1 3.9 101690 62
2004-02-24 08:11:18 51°20.3 2°44.259 16.6 358 3.9 101690 62
2004-02-24 08:11:22 51°20.304 2°44.235 18 355 3.9 101690 62
2004-02-24 08:11:28 51°20.308 2°44.198 17.8 354 3.9 101690 62
2004-02-24 08:11:33 51°20.312 2°44.168 17.4 355 3.9 101690 62
2004-02-24 08:11:38 51°20.315 2°44.138 18   3.9 101690 62
2004-02-24 08:11:42 51°20.319 2°44.114 18 351 3.9 101700 62
2004-02-24 08:11:48 51°20.324 2°44.078 17.4 355 3.9 101700 62
2004-02-24 08:11:53 51°20.328 2°44.048 16.6 356 3.9 101700 62
2004-02-24 08:11:58 51°20.331 2°44.017 16.8 360 3.9 101700 62
2004-02-24 08:12:03 51°20.336 2°43.987 17.6 353 3.9 101700 62
2004-02-24 08:12:08 51°20.339 2°43.957 16.7 354 3.9 101700 62
2004-02-24 08:12:13 51°20.342 2°43.926 17.2 350 3.9 101700 61
2004-02-24 08:12:18 51°20.346 2°43.896 16.7 351 3.9 101700 61
2004-02-24 08:12:23 51°20.349 2°43.865 15.9 351 3.9 101700 61
2004-02-24 08:12:28 51°20.353 2°43.835 16.5 354 3.9 101700 61
2004-02-24 08:12:33 51°20.356 2°43.804 17.1 354 3.9 101710 62
2004-02-24 08:12:38 51°20.359 2°43.773 16.2 352 3.9 101710 62
2004-02-24 08:12:43 51°20.361 2°43.743 17.7 357 3.9 101690 62
2004-02-24 08:12:48 51°20.364 2°43.712 17.9 353 3.9 101690 62
2004-02-24 08:12:53 51°20.366 2°43.681 18.8 355 4 101710 63
2004-02-24 08:12:58 51°20.369 2°43.65 18.9 357 4 101710 63
2004-02-24 08:13:03 51°20.37 2°43.619 16.7 353 4 101700 63
2004-02-24 08:13:08 51°20.373 2°43.588 17.6 356 4 101700 63
2004-02-24 08:13:12 51°20.375 2°43.564 16.8 357 3.9 101690 62
2004-02-24 08:13:18 51°20.377 2°43.529 16.7 355 3.9 101690 62
2004-02-24 08:13:22 51°20.379 2°43.508 16.3   4 101700 62
2004-02-24 08:13:28 51°20.381 2°43.479 15.3 358 4 101700 62
2004-02-24 08:13:33 51°20.383 2°43.457 14.8 355 3.9 101690 62
2004-02-24 08:13:38 51°20.384 2°43.436 13.8 359 3.9 101690 62
2004-02-24 08:13:42 51°20.385 2°43.42 13.9 2 3.9 101710 62
2004-02-24 08:13:48 51°20.385 2°43.398 12.8 3 3.9 101710 62
2004-02-24 08:13:53 51°20.385 2°43.381 14.3 8 3.9 101700 62
2004-02-24 08:13:58 51°20.385 2°43.365 13.7 6 3.9 101700 62
2004-02-24 08:14:02 51°20.385 2°43.353 12.9 1 3.9 101720 63
2004-02-24 08:14:08 51°20.384 2°43.336 13.6 6 3.9 101720 63
2004-02-24 08:14:13 51°20.383 2°43.322 12.5 6 4 101730 63
2004-02-24 08:14:18 51°20.383 2°43.309 12.9 6 4 101730 63
2004-02-24 08:14:23 51°20.382 2°43.297 11.9 9 4 101720 63
2004-02-24 08:14:28 51°20.38 2°43.286 11.5 7 4 101720 63
2004-02-24 08:14:33 51°20.379 2°43.275 11.7 13 4 101730 63
2004-02-24 08:14:38 51°20.378 2°43.265 11.5 9 4 101730 63
2004-02-24 08:14:43 51°20.377 2°43.254 11 13 4 101710 63
2004-02-24 08:14:48 51°20.375 2°43.245 12.5 19 4 101710 63
2004-02-24 08:14:52 51°20.374 2°43.238 11.8 12 4 101710 63
2004-02-24 08:14:58 51°20.373 2°43.227 11.6 15 4 101710 63
2004-02-24 08:15:02 51°20.372 2°43.221 12.5 17 4 101720 64
2004-02-24 08:15:08 51°20.37 2°43.211 11.9 15 4 101720 64
2004-02-24 08:15:13 51°20.369 2°43.204 10.7 13 4 101720 64
2004-02-24 08:15:18 51°20.367 2°43.197 10.2 15 4 101720 64
2004-02-24 08:15:22 51°20.367 2°43.192 10 9 4 101710 63
2004-02-24 08:15:28 51°20.365 2°43.184 11.1 13 4 101710 63
2004-02-24 08:15:33 51°20.364 2°43.178 11 13 3.9 101720 62
2004-02-24 08:15:38 51°20.363 2°43.172 11.2 5 3.9 101720 62
2004-02-24 08:15:42 51°20.362 2°43.168 11.4 10 3.9 101720 63
2004-02-24 08:15:48 51°20.361 2°43.161 10.9 6 3.9 101720 63
2004-02-24 08:15:53 51°20.36 2°43.156 11.4 6 3.9 101730 63
2004-02-24 08:15:58 51°20.359 2°43.151 10.3 1 3.9 101730 63
2004-02-24 08:16:02 51°20.358 2°43.147 9.6 10 3.9 101710 62
2004-02-24 08:16:08 51°20.358 2°43.142 8.8 3 3.9 101710 62
2004-02-24 08:16:13 51°20.357 2°43.137 9.1 1 3.9 101730 62
2004-02-24 08:16:18 51°20.356 2°43.133 10 356 3.9 101730 62
2004-02-24 08:16:22 51°20.356 2°43.13 10.4 354 3.9 101730 62
2004-02-24 08:16:28 51°20.355 2°43.125 9.8 352 3.9 101730 62
2004-02-24 08:16:33 51°20.355 2°43.121 9.4 353 3.9 101730 63
2004-02-24 08:16:38 51°20.354 2°43.117 9.7 356 3.9 101730 63
2004-02-24 08:16:43 51°20.354 2°43.113 10.5 344 3.9 101730 62
2004-02-24 08:16:48 51°20.354 2°43.108 10.9 347 3.9 101730 62
2004-02-24 08:16:53 51°20.355 2°43.101 10.4 332 3.9 101730 61
2004-02-24 08:16:58 51°20.357 2°43.092 11.1 329 3.9 101730 61
2004-02-24 08:17:03 51°20.359 2°43.083 11.8 334 3.9 101730 61
2004-02-24 08:17:08 51°20.363 2°43.072 11.6 332 3.9 101730 61
2004-02-24 08:17:13 51°20.367 2°43.06 12.8 336 3.9 101720 62
2004-02-24 08:17:18 51°20.372 2°43.045 14.1 347 3.9 101720 62
2004-02-24 08:17:22 51°20.376 2°43.033 15.1 346 3.9 101710 62
2004-02-24 08:17:28 51°20.382 2°43.011 14.8 352 3.9 101710 62
2004-02-24 08:17:33 51°20.387 2°42.991 14.7 356 3.9 101710 62
2004-02-24 08:17:38 51°20.391 2°42.969 15.2 357 3.9 101710 62
2004-02-24 08:17:43 51°20.396 2°42.947 16.2 354 3.9 101700 62
2004-02-24 08:17:48 51°20.401 2°42.923 17.9 356 3.9 101700 62
2004-02-24 08:17:53 51°20.406 2°42.897 17.8 356 3.9 101700 62
2004-02-24 08:17:58 51°20.411 2°42.87 17.1 351 3.9 101700 62
2004-02-24 08:18:02 51°20.415 2°42.848 17.1 351 3.9 101710 62
2004-02-24 08:18:08 51°20.422 2°42.814 17.7 349 3.9 101710 62
2004-02-24 08:18:13 51°20.428 2°42.785 15.9 356 3.9 101680 62
2004-02-24 08:18:18 51°20.433 2°42.755 16.6 351 3.9 101680 62
2004-02-24 08:18:22 51°20.437 2°42.731 16.1 355 3.9 101760 63
2004-02-24 08:18:28 51°20.444 2°42.696 16.9 356 3.9 101760 63
2004-02-24 08:18:33 51°20.45 2°42.666 17.1 353 3.9 101690 63
2004-02-24 08:18:38 51°20.456 2°42.635 17.6   3.9 101690 63
2004-02-24 08:18:43 51°20.462 2°42.605 17.3 352 3.9 101690 64
2004-02-24 08:18:48 51°20.467 2°42.575 16.9 355 3.9 101690 64
2004-02-24 08:18:53 51°20.473 2°42.545 16.9 353 3.9 101700 64
2004-02-24 08:18:58 51°20.479 2°42.515 17.8 353 3.9 101700 64
2004-02-24 08:19:02 51°20.484 2°42.49 17.3 355 3.9 101690 63
2004-02-24 08:19:08 51°20.49 2°42.454 18.4 356 3.9 101690 63
2004-02-24 08:19:12 51°20.494 2°42.429 17.7 357 3.9 101680 63
2004-02-24 08:19:18 51°20.501 2°42.392 18.2 358 3.9 101680 63
2004-02-24 08:19:22 51°20.505 2°42.368 18.4 357 3.9 101680 63
2004-02-24 08:19:28 51°20.511 2°42.331 18.3 352 3.9 101680 63
2004-02-24 08:19:33 51°20.517 2°42.301 17.3 355 3.9 101680 63
2004-02-24 08:19:38 51°20.522 2°42.27 16.2 354 3.9 101680 63
2004-02-24 08:19:43 51°20.527 2°42.24 17.3 353 3.9 101670 63
2004-02-24 08:19:48 51°20.532 2°42.209 15.7 354 3.9 101670 63
2004-02-24 08:19:52 51°20.537 2°42.184 16.8 355 3.9 101670 63
2004-02-24 08:19:58 51°20.543 2°42.147 15.7 357 3.9 101670 63
2004-02-24 08:20:03 51°20.549 2°42.117 17 347 3.9 101680 63
2004-02-24 08:20:08 51°20.554 2°42.086 17.3 351 3.9 101680 63
2004-02-24 08:20:13 51°20.56 2°42.055 16.4 355 3.9 101680 64
2004-02-24 08:20:18 51°20.565 2°42.024 16.8 355 3.9 101680 64
2004-02-24 08:20:22 51°20.57 2°42 17.2 350 3.9 101680 64
2004-02-24 08:20:28 51°20.576 2°41.963 16.7 354 3.9 101680 64
2004-02-24 08:20:33 51°20.582 2°41.932 17.1 351 3.9 101670 64
2004-02-24 08:20:38 51°20.588 2°41.901 18.6 352 3.9 101670 64
2004-02-24 08:20:43 51°20.593 2°41.87 18.4 351 3.9 101690 64
2004-02-24 08:20:48 51°20.598 2°41.84 18.5 353 3.9 101690 64
2004-02-24 08:20:53 51°20.604 2°41.809 17.1 353 3.9 101670 64
2004-02-24 08:20:58 51°20.61 2°41.779 19 350 3.9 101670 64
2004-02-24 08:21:03 51°20.615 2°41.748 17.3 354 3.9 101680 63
2004-02-24 08:21:08 51°20.62 2°41.717 16.9 357 3.9 101680 63
2004-02-24 08:21:13 51°20.624 2°41.686 16.9 358 3.9 101670 62
2004-02-24 08:21:18 51°20.629 2°41.655 16.6 357 3.9 101670 62
2004-02-24 08:21:22 51°20.632 2°41.63 17.7 356 3.9 101680 62
2004-02-24 08:21:28 51°20.637 2°41.593 18.3 356 3.9 101680 62
2004-02-24 08:21:33 51°20.641 2°41.561 17.7 357 3.9 101670 62
2004-02-24 08:21:38 51°20.645 2°41.53 18 356 3.9 101670 62
2004-02-24 08:21:42 51°20.648 2°41.505 18.1 354 3.9 101690 61
2004-02-24 08:21:48 51°20.653 2°41.468 18.1 355 3.9 101690 61
2004-02-24 08:21:53 51°20.657 2°41.437 17.7 357 3.9 101680 61
2004-02-24 08:21:58 51°20.661 2°41.406 17.6 354 3.9 101680 61
2004-02-24 08:22:03 51°20.665 2°41.375 18.1 353 3.9 101670 61
2004-02-24 08:22:08 51°20.669 2°41.344 17.8 357 3.9 101670 61
2004-02-24 08:22:13 51°20.673 2°41.313 18.4 354 3.9 101680 61
2004-02-24 08:22:18 51°20.677 2°41.282 16.9 356 3.9 101680 61
2004-02-24 08:22:23 51°20.68 2°41.251 17.4 356 3.9 101680 61
2004-02-24 08:22:28 51°20.682 2°41.22 17.1 357 3.9 101680 61
2004-02-24 08:22:32 51°20.685 2°41.195 15.9 359 3.9 101670 61
2004-02-24 08:22:38 51°20.689 2°41.158 17.5 353 3.9 101670 61
2004-02-24 08:22:43 51°20.692 2°41.126 18 354 3.9 101700 60
2004-02-24 08:22:48 51°20.695 2°41.096 17.4 352 3.9 101700 60
2004-02-24 08:22:52 51°20.698 2°41.071 16 355 3.9 101700 61
2004-02-24 08:22:58 51°20.702 2°41.034 16 355 3.9 101700 61
2004-02-24 08:23:03 51°20.705 2°41.003 17.1 353 3.9 101700 62
2004-02-24 08:23:08 51°20.708 2°40.971 14.8 350 3.9 101700 62
2004-02-24 08:23:13 51°20.711 2°40.94 15.9 359 3.9 101690 62
2004-02-24 08:23:18 51°20.714 2°40.909 16.8 359 3.9 101690 62
2004-02-24 08:23:22 51°20.717 2°40.884 17.3 356 4 101700 62
2004-02-24 08:23:28 51°20.721 2°40.847 18.7 357 4 101700 62
2004-02-24 08:23:32 51°20.723 2°40.822 17.8 1 3.9 101700 62
2004-02-24 08:23:38 51°20.727 2°40.785 16.9 359 3.9 101700 62
2004-02-24 08:23:43 51°20.731 2°40.754 17.2 358 4 101710 62
2004-02-24 08:23:48 51°20.734 2°40.723 18.3 358 4 101710 62
2004-02-24 08:23:53 51°20.738 2°40.693 16.9 355 3.9 101690 61
2004-02-24 08:23:58 51°20.741 2°40.661 17.2 1 3.9 101690 61
2004-02-24 08:24:03 51°20.745 2°40.631 17.7 2 3.9 101680 61
2004-02-24 08:24:08 51°20.747 2°40.6 17.5 358 3.9 101680 61
2004-02-24 08:24:12 51°20.751 2°40.575 18.2 359 4 101700 60
2004-02-24 08:24:18 51°20.754 2°40.538 18.1 358 4 101700 60
2004-02-24 08:24:23 51°20.758 2°40.507 17.4 358 3.9 101680 60
2004-02-24 08:24:28 51°20.761 2°40.476 17.5 356 3.9 101680 60
2004-02-24 08:24:33 51°20.765 2°40.445 18.3 355 3.9 101700 60
2004-02-24 08:24:38 51°20.768 2°40.414 17.2 356 3.9 101700 60
2004-02-24 08:24:42 51°20.771 2°40.389 18.4 358 3.9 101690 60
2004-02-24 08:24:48 51°20.774 2°40.352 18.1 2 3.9 101690 60
2004-02-24 08:24:53 51°20.777 2°40.32 17.6 359 3.9 101690 59
2004-02-24 08:24:58 51°20.779 2°40.289 17.1 6 3.9 101690 59
2004-02-24 08:25:02 51°20.781 2°40.264 17.9 358 3.9 101690 60
2004-02-24 08:25:08 51°20.784 2°40.227 17.8 1 3.9 101690 60
2004-02-24 08:25:13 51°20.786 2°40.195 17 358 3.9 101690 59
2004-02-24 08:25:18 51°20.789 2°40.164 17 355 3.9 101690 59
2004-02-24 08:25:22 51°20.79 2°40.138 17.2 357 3.9 101700 59
2004-02-24 08:25:28 51°20.794 2°40.101 17.4 354 3.9 101700 59
2004-02-24 08:25:33 51°20.796 2°40.069 17.3 360 4 101700 60
2004-02-24 08:25:38 51°20.798 2°40.037 17.8 360 4 101700 60
2004-02-24 08:25:43 51°20.8 2°40.006 16.8 359 4 101700 60
2004-02-24 08:25:48 51°20.803 2°39.974 19 356 4 101700 60
2004-02-24 08:25:53 51°20.805 2°39.942 17 357 4 101700 60
2004-02-24 08:25:58 51°20.808 2°39.911 18 356 4 101690 60
2004-02-24 08:26:02 51°20.81 2°39.886 16.6 358 4 101700 61
2004-02-24 08:26:08 51°20.812 2°39.848 16.7 1 4 101700 61
2004-02-24 08:26:13 51°20.815 2°39.816 16.1 3 4 101690 61
2004-02-24 08:26:18 51°20.817 2°39.785 16.6 360 4 101690 61
2004-02-24 08:26:23 51°20.82 2°39.753 16.3 358 4 101690 60
2004-02-24 08:26:28 51°20.822 2°39.722 17.4 2 4 101690 60
2004-02-24 08:26:33 51°20.825 2°39.69 16.7 1 4 101700 60
2004-02-24 08:26:38 51°20.828 2°39.659 18 359 4 101700 60
2004-02-24 08:26:42 51°20.829 2°39.633 18.1 358 4 101710 61
2004-02-24 08:26:48 51°20.833 2°39.596 18.4 1 4 101710 61
2004-02-24 08:26:53 51°20.835 2°39.564 17.8   4 101700 61
2004-02-24 08:26:58 51°20.838 2°39.533 17.5 358 4 101700 61
2004-02-24 08:27:02 51°20.839 2°39.507 17.8 359 4 101700 61
2004-02-24 08:27:08 51°20.843 2°39.469 19 356 4 101700 61
2004-02-24 08:27:13 51°20.845 2°39.438 17.7 355 4 101700 61
2004-02-24 08:27:18 51°20.848 2°39.406 18.7 355 4 101700 61
2004-02-24 08:27:22 51°20.85 2°39.381 17.4 356 4 101710 62
2004-02-24 08:27:28 51°20.853 2°39.343 18.5 355 4 101710 62
2004-02-24 08:27:33 51°20.856 2°39.312 17.4 356 4 101690 62
2004-02-24 08:27:38 51°20.858 2°39.28 17.1   4 101690 62
2004-02-24 08:27:42 51°20.861 2°39.255 16.9 357 4 101690 62
2004-02-24 08:27:48 51°20.863 2°39.218 17.6 354 4 101690 62
2004-02-24 08:27:53 51°20.866 2°39.186 16.6 356 4 101690 61
2004-02-24 08:27:58 51°20.869 2°39.155 16.6 357 4 101690 61
2004-02-24 08:28:03 51°20.871 2°39.123 18 357 4 101690 62
2004-02-24 08:28:08 51°20.874 2°39.092 17 355 4 101690 62
2004-02-24 08:28:13 51°20.876 2°39.061 16.3 356 4 101710 62
2004-02-24 08:28:18 51°20.88 2°39.029 18.3 355 4 101710 62
2004-02-24 08:28:23 51°20.881 2°38.998 18.3 354 4 101700 62
2004-02-24 08:28:28 51°20.884 2°38.967 16.3 354 4 101700 62
2004-02-24 08:28:33 51°20.886 2°38.935 17 356 4 101700 61
2004-02-24 08:28:38 51°20.889 2°38.904 16.1 354 4 101700 61
2004-02-24 08:28:43 51°20.891 2°38.872 16.2 2 4 101710 61
2004-02-24 08:28:48 51°20.894 2°38.841 17.7 358 4 101710 61
2004-02-24 08:28:53 51°20.896 2°38.809 17.4 357 4 101700 61
2004-02-24 08:28:58 51°20.898 2°38.777 16.9 359 4 101700 61
2004-02-24 08:29:02 51°20.9 2°38.752 16.7 357 4 101710 62
2004-02-24 08:29:08 51°20.903 2°38.714 16.7 356 4 101710 62
2004-02-24 08:29:13 51°20.906 2°38.682 16.9 3 4 101700 61
2004-02-24 08:29:18 51°20.908 2°38.651 16.7 6 4 101700 61
2004-02-24 08:29:23 51°20.911 2°38.619 18.4 2 4 101700 61
2004-02-24 08:29:28 51°20.913 2°38.587 17.5 1 4 101700 61
2004-02-24 08:29:33 51°20.916 2°38.555 19 360 4 101690 62
2004-02-24 08:29:38 51°20.918 2°38.524 18.5   4 101690 62
2004-02-24 08:29:42 51°20.921 2°38.498 18.2 359 4 101710 62
2004-02-24 08:29:48 51°20.923 2°38.46 17.5 360 4 101710 62
2004-02-24 08:29:53 51°20.926 2°38.429 18.4 357 4 101700 61
2004-02-24 08:29:58 51°20.928 2°38.397 17.5 359 4 101700 61
2004-02-24 08:30:02 51°20.93 2°38.372 18.1 358 4 101700 61
2004-02-24 08:30:08 51°20.933 2°38.333 17 356 4 101700 61
2004-02-24 08:30:13 51°20.936 2°38.301 17.5 358 4 101700 61
2004-02-24 08:30:18 51°20.938 2°38.27 17.5 356 4 101700 61
2004-02-24 08:30:22 51°20.94 2°38.244 17.1 358 4 101700 60
2004-02-24 08:30:28 51°20.943 2°38.205 16 3 4 101700 60
2004-02-24 08:30:32 51°20.944 2°38.18 17.9 6 4 101690 61
2004-02-24 08:30:38 51°20.946 2°38.141 17.4 3 4 101690 61
2004-02-24 08:30:42 51°20.947 2°38.116 17 1 4 101690 61
2004-02-24 08:30:48 51°20.949 2°38.077 17.1 4 4 101690 61
2004-02-24 08:30:53 51°20.95 2°38.045 17.6 3 4 101700 62
2004-02-24 08:30:58 51°20.951 2°38.013 17.1 359 4 101700 62
2004-02-24 08:31:03 51°20.953 2°37.98 15.8 3 4 101700 62
2004-02-24 08:31:08 51°20.954 2°37.948 17.2 360 4 101700 62
2004-02-24 08:31:13 51°20.955 2°37.916 16.2 2 4 101700 62
2004-02-24 08:31:18 51°20.957 2°37.884 16.1 358 4 101700 62
2004-02-24 08:31:23 51°20.958 2°37.851 16.6 357 4 101700 62
2004-02-24 08:31:28 51°20.96 2°37.819 17.4 357 4 101700 62
2004-02-24 08:31:33 51°20.962 2°37.787 16.3 358 4 101710 62
2004-02-24 08:31:38 51°20.962 2°37.755 17.3 3 4 101710 62
2004-02-24 08:31:42 51°20.964 2°37.729 15.9 1 4 101700 63
2004-02-24 08:31:48 51°20.965 2°37.69 16.9 356 4 101700 63
2004-02-24 08:31:53 51°20.967 2°37.658 16.4 4 4 101700 63
2004-02-24 08:31:58 51°20.968 2°37.626 18.6 358 4 101700 63
2004-02-24 08:32:03 51°20.97 2°37.593 19.4 1 4.1 101700 63
2004-02-24 08:32:08 51°20.971 2°37.561 18.9 2 4.1 101700 63
2004-02-24 08:32:12 51°20.972 2°37.536 17.7 2 4.1 101700 64
2004-02-24 08:32:18 51°20.974 2°37.497 18.5 3 4.1 101700 64
2004-02-24 08:32:23 51°20.976 2°37.465 17.3 354 4.1 101710 63
2004-02-24 08:32:28 51°20.977 2°37.432 17.4 2 4.1 101710 63
2004-02-24 08:32:32 51°20.978 2°37.406 18 358 4.1 101700 63
2004-02-24 08:32:38 51°20.98 2°37.368 17.1 354 4.1 101700 63
2004-02-24 08:32:43 51°20.981 2°37.335 18 355 4.1 101700 63
2004-02-24 08:32:48 51°20.983 2°37.303 17.1 355 4.1 101700 63
2004-02-24 08:32:53 51°20.984 2°37.271 17.8 355 4.1 101690 62
2004-02-24 08:32:58 51°20.986 2°37.239 17.5 357 4.1 101690 62
2004-02-24 08:33:03 51°20.987 2°37.206 17.8 5 4 101690 62
2004-02-24 08:33:08 51°20.989 2°37.174 19.4 3 4 101690 62
2004-02-24 08:33:13 51°20.99 2°37.142 17.9 2 4 101700 63
2004-02-24 08:33:18 51°20.992 2°37.11 19.1 4 4 101700 63
2004-02-24 08:33:23 51°20.993 2°37.077 16.9 3 4.1 101690 63
2004-02-24 08:33:28 51°20.994 2°37.045 18.2 360 4.1 101690 63
2004-02-24 08:33:33 51°20.997 2°37.013 19.6 355 4 101700 62
2004-02-24 08:33:38 51°20.998 2°36.98 18.8 357 4 101700 62
2004-02-24 08:33:42 51°20.999 2°36.954 18.3 355 4 101690 62
2004-02-24 08:33:48 51°21.001 2°36.916 19.2 358 4 101690 62
2004-02-24 08:33:53 51°21.003 2°36.884 19.6 357 4 101690 62
2004-02-24 08:33:58 51°21.005 2°36.851 18.4 358 4 101690 62
2004-02-24 08:34:02 51°21.006 2°36.826 18.3 358 4 101690 62
2004-02-24 08:34:08 51°21.008 2°36.787 17.4 5 4 101690 62
2004-02-24 08:34:13 51°21.01 2°36.755 18.2 358 4 101700 61
2004-02-24 08:34:18 51°21.012 2°36.722 16.3 5 4 101700 61
2004-02-24 08:34:24 51°21.012 2°36.684 17 5 4 101690 61
2004-02-24 08:34:28 51°21.013 2°36.658 17 5 4 101690 61
2004-02-24 08:34:34 51°21.015 2°36.619 17.1 356 4 101700 62
2004-02-24 08:34:38 51°21.016 2°36.593 17.8 359 4 101700 62
2004-02-24 08:34:43 51°21.018 2°36.56 17.8 1 4 101700 62
2004-02-24 08:34:48 51°21.019 2°36.528 17.9 5 4 101700 62
2004-02-24 08:34:53 51°21.021 2°36.495 18.4 8 4 101700 62
2004-02-24 08:34:58 51°21.022 2°36.463 18.6 4 4 101700 62
2004-02-24 08:35:02 51°21.023 2°36.437 17.9 3 4.1 101700 63
2004-02-24 08:35:08 51°21.025 2°36.398 19.1 1 4.1 101700 63
2004-02-24 08:35:13 51°21.027 2°36.365 19.3 4 4.1 101700 63
2004-02-24 08:35:18 51°21.028 2°36.332 18.1 5 4.1 101700 63
2004-02-24 08:35:23 51°21.029 2°36.3 18.9 4 4.1 101710 63
2004-02-24 08:35:28 51°21.031 2°36.267 18.3 2 4.1 101710 63
2004-02-24 08:35:32 51°21.032 2°36.241 18.8 3 4 101690 62
2004-02-24 08:35:38 51°21.034 2°36.202 18.2 1 4 101690 62
2004-02-24 08:35:43 51°21.036 2°36.17 17.8 1 4 101700 62
2004-02-24 08:35:48 51°21.037 2°36.137 18.7 5 4 101700 62
2004-02-24 08:35:53 51°21.039 2°36.105 18.2 1 4 101690 62
2004-02-24 08:35:58 51°21.04 2°36.072 17.8 4 4 101690 62
2004-02-24 08:36:04 51°21.042 2°36.033 18.5 5 4 101690 62
2004-02-24 08:36:08 51°21.043 2°36.007 17.5 4 4 101690 62
2004-02-24 08:36:13 51°21.045 2°35.974 17.5   4 101700 62
2004-02-24 08:36:18 51°21.046 2°35.942 17.2 357 4 101700 62
2004-02-24 08:36:22 51°21.047 2°35.916 16.5 356 4 101700 62
2004-02-24 08:36:28 51°21.049 2°35.877 15.8 358 4 101700 62
2004-02-24 08:36:32 51°21.05 2°35.851 18.7 2 4 101700 62
2004-02-24 08:36:38 51°21.052 2°35.812 18.3   4 101700 62
2004-02-24 08:36:42 51°21.054 2°35.786 18.8 357 4 101700 62
2004-02-24 08:36:48 51°21.055 2°35.747 19 3 4 101700 62
2004-02-24 08:36:52 51°21.056 2°35.721 18.3 3 4.1 101700 63
2004-02-24 08:36:58 51°21.058 2°35.682 17.6 5 4.1 101700 63
2004-02-24 08:37:03 51°21.059 2°35.649 17.5   4.1 101700 63